Terminal Aerodrome Forecast
Issued by NWS Springfield, MO

Home | Current Version | Previous Version | Text Only | Print | Product List | Glossary On
Versions: 1 2 3 4 5 6 7 8 9 10 11 12 13 14 15 16 17 18 19 20 21 22 23 24 25 26 27 28 29 30 31 32 33 34 35
328
FTUS43 KSGF 212329 AAE
TAFSGF
TAF AMD
KSGF 212329Z 2123/2218 04012KT P6SM OVC007
     FM220000 06015KT 4SM -FZRA BR OVC007
     FM220600 05015KT 4SM BR OVC007=

USA.gov is the U.S. government's official web portal to all federal, state and local government web resources and services.